Time;durP1;ratioP1;P1;durP2;ratioP2;P2;SDS_P1;SDS_P2;PMS_P1;PMS_P2;Temp;Humidity;BMP_temperature;BMP_pressure;BME280_temperature;BME280_humidity;BME280_pressure;Samples;Min_cycle;Max_cycle;Signal;HPM_P1;HPM_P2
2023/07/21 00:01:06;;;;;;;0.93;0.55;;;;;;;17.30;64.07;101378.63;4992435;28;101813;-27
2023/07/21 00:03:35;;;;;;;1.10;0.60;;;;;;;17.22;63.85;101370.19;4994062;28;96569;-27
2023/07/21 00:06:03;;;;;;;0.98;0.70;;;;;;;17.29;63.87;101376.91;4992793;28;96833;-27
2023/07/21 00:08:29;;;;;;;0.55;0.40;;;;;;;17.24;65.09;101376.41;4993299;28;99307;-27
2023/07/21 00:10:58;;;;;;;0.52;0.47;;;;;;;17.20;65.07;101375.75;4993837;28;97286;-26
2023/07/21 00:13:27;;;;;;;0.35;0.35;;;;;;;17.12;64.94;101374.66;4997253;28;96803;-27
2023/07/21 00:15:53;;;;;;;1.27;0.47;;;;;;;17.08;65.04;101367.69;4996424;28;96605;-27
2023/07/21 00:18:19;;;;;;;1.08;0.63;;;;;;;17.06;65.48;101373.28;4997167;28;97881;-28
2023/07/21 00:20:46;;;;;;;0.95;0.50;;;;;;;17.06;65.52;101372.41;4995660;28;101309;-27
2023/07/21 00:23:12;;;;;;;0.73;0.60;;;;;;;16.94;65.92;101357.84;4995172;28;96694;-27
2023/07/21 00:25:38;;;;;;;1.58;0.85;;;;;;;16.96;65.79;101373.16;4995910;28;96792;-27
2023/07/21 00:28:03;;;;;;;0.60;0.45;;;;;;;16.89;66.41;101366.44;4996678;28;99399;-27
2023/07/21 00:30:28;;;;;;;1.00;0.73;;;;;;;16.83;66.33;101361.47;4996591;28;99111;-27
2023/07/21 00:32:54;;;;;;;0.68;0.63;;;;;;;16.83;66.60;101372.41;4997092;28;96624;-27
2023/07/21 00:35:19;;;;;;;0.55;0.40;;;;;;;16.80;66.59;101372.63;4996822;28;96716;-27
2023/07/21 00:37:44;;;;;;;1.98;0.88;;;;;;;16.73;67.33;101368.59;4996455;28;104341;-27
2023/07/21 00:40:15;;;;;;;0.80;0.63;;;;;;;16.70;67.34;101360.66;4996968;28;99625;-27
2023/07/21 00:42:41;;;;;;;1.45;0.85;;;;;;;16.68;67.38;101363.50;4997108;28;96454;-27
2023/07/21 00:45:06;;;;;;;3.15;0.68;;;;;;;16.62;67.78;101355.78;4997151;28;96780;-27
2023/07/21 00:47:35;;;;;;;0.60;0.50;;;;;;;16.63;68.01;101364.88;4995891;28;100122;-27
2023/07/21 00:50:00;;;;;;;0.60;0.60;;;;;;;16.61;68.02;101359.50;4994500;28;100692;-27
2023/07/21 00:52:26;;;;;;;0.93;0.55;;;;;;;16.58;67.90;101362.50;4996769;28;96676;-29
2023/07/21 00:54:52;;;;;;;1.05;0.70;;;;;;;16.53;68.42;101354.63;4995323;28;96759;-27
2023/07/21 00:57:20;;;;;;;0.63;0.63;;;;;;;16.53;68.03;101360.09;4996637;28;97899;-27
2023/07/21 00:59:46;;;;;;;0.43;0.43;;;;;;;16.51;68.26;101353.03;4995109;28;98865;-27
2023/07/21 01:02:11;;;;;;;1.20;0.73;;;;;;;16.48;67.99;101339.59;4996731;28;96483;-27
2023/07/21 01:04:37;;;;;;;1.05;0.80;;;;;;;16.45;68.27;101337.97;4997153;28;96834;-27
2023/07/21 01:07:05;;;;;;;1.05;0.60;;;;;;;16.45;68.78;101339.84;4994636;28;101674;-27
2023/07/21 01:09:35;;;;;;;0.57;0.50;;;;;;;16.44;68.75;101340.81;4996225;28;97850;-27
2023/07/21 01:12:01;;;;;;;1.42;0.70;;;;;;;16.40;68.70;101326.53;4996039;28;96597;-28
2023/07/21 01:14:28;;;;;;;0.55;0.47;;;;;;;16.38;68.83;101328.50;4995081;28;96962;-27
2023/07/21 01:16:56;;;;;;;0.85;0.57;;;;;;;16.31;68.75;101322.66;4994765;28;100874;-27
2023/07/21 01:19:22;;;;;;;0.98;0.65;;;;;;;16.28;68.77;101322.91;4994541;28;100817;-27
2023/07/21 01:21:53;;;;;;;0.68;0.68;;;;;;;16.29;69.10;101323.75;4994930;28;96906;-27
2023/07/21 01:24:42;;;;;;;1.17;0.88;;;;;;;16.26;69.65;101321.28;4994204;28;96811;-27
2023/07/21 01:27:11;;;;;;;0.73;0.47;;;;;;;16.17;69.74;101311.06;4996099;28;97382;-27
2023/07/21 01:29:41;;;;;;;1.90;0.85;;;;;;;16.19;69.65;101311.81;4994932;28;100923;-27
2023/07/21 01:32:09;;;;;;;1.23;0.95;;;;;;;16.15;69.81;101319.38;4994711;28;96655;-27
2023/07/21 01:34:36;;;;;;;1.35;0.88;;;;;;;16.12;70.08;101312.28;4996079;28;96826;-28
2023/07/21 01:37:03;;;;;;;1.17;0.70;;;;;;;16.11;69.80;101313.28;4993653;28;101144;-27
2023/07/21 01:39:30;;;;;;;1.08;0.77;;;;;;;16.05;70.67;101300.06;4994447;28;101007;-29
2023/07/21 01:41:56;;;;;;;1.58;0.80;;;;;;;16.04;70.42;101311.13;4994571;28;96716;-29
2023/07/21 01:44:22;;;;;;;1.05;0.68;;;;;;;15.98;70.77;101311.59;4994480;28;96860;-27
2023/07/21 01:46:48;;;;;;;1.23;0.55;;;;;;;15.96;71.01;101311.72;4994296;28;100978;-28
2023/07/21 01:49:15;;;;;;;1.15;0.52;;;;;;;15.87;71.20;101315.16;4995507;28;97776;-27
2023/07/21 01:51:42;;;;;;;2.50;1.05;;;;;;;15.83;71.35;101305.47;4977969;28;96836;-27
2023/07/21 01:54:14;;;;;;;1.00;0.60;;;;;;;15.85;71.76;101311.66;4994859;28;96796;-27
2023/07/21 01:56:48;;;;;;;1.02;0.80;;;;;;;15.83;72.31;101316.41;4994161;28;100810;-28
2023/07/21 01:59:17;;;;;;;1.08;0.82;;;;;;;15.81;71.36;101312.91;4995517;28;99418;-28
2023/07/21 02:01:42;;;;;;;0.93;0.70;;;;;;;15.80;71.77;101312.03;4993794;28;96633;-27
2023/07/21 02:04:08;;;;;;;0.80;0.60;;;;;;;15.81;72.00;101312.91;4995574;28;96798;-27
2023/07/21 02:06:33;;;;;;;0.80;0.73;;;;;;;15.75;72.68;101306.03;4995583;28;97868;-27
2023/07/21 02:08:58;;;;;;;0.93;0.80;;;;;;;15.75;72.06;101300.56;4995229;28;99387;-27
2023/07/21 02:11:24;;;;;;;1.33;0.70;;;;;;;15.75;72.61;101306.03;4995388;28;96812;-28
2023/07/21 02:13:50;;;;;;;0.95;0.68;;;;;;;15.69;72.95;101295.56;4995675;28;96805;-27
2023/07/21 02:16:15;;;;;;;1.48;0.95;;;;;;;15.76;72.23;101299.59;4995326;28;97956;-28
2023/07/21 02:18:42;;;;;;;1.33;0.85;;;;;;;15.79;72.70;101303.94;4995698;28;97405;-29
2023/07/21 02:21:07;;;;;;;0.80;0.70;;;;;;;15.74;72.97;101300.69;4994125;28;96507;-27
2023/07/21 02:23:32;;;;;;;1.40;0.88;;;;;;;15.70;73.08;101295.44;4996000;28;96868;-27
2023/07/21 02:25:58;;;;;;;1.05;0.73;;;;;;;15.68;73.21;101300.16;4994404;28;97829;-27
2023/07/21 02:28:24;;;;;;;0.82;0.60;;;;;;;15.67;72.75;101290.19;4993692;28;101343;-27
2023/07/21 02:31:04;;;;;;;1.25;1.00;;;;;;;15.73;72.81;101299.84;4995550;28;96527;-27
2023/07/21 02:33:30;;;;;;;1.45;0.95;;;;;;;15.75;72.49;101303.28;4993996;28;96832;-27
2023/07/21 02:35:57;;;;;;;1.25;0.90;;;;;;;15.71;72.54;101296.34;4992114;28;98916;-27
2023/07/21 02:38:22;;;;;;;1.50;0.88;;;;;;;15.76;72.38;101298.72;4993543;28;101002;-27
2023/07/21 02:40:48;;;;;;;2.42;0.95;;;;;;;15.68;72.55;101285.59;4995330;28;96610;-27
2023/07/21 02:43:13;;;;;;;1.92;1.08;;;;;;;15.65;72.86;101291.31;4995582;28;96776;-27
2023/07/21 02:45:39;;;;;;;1.75;1.05;;;;;;;15.61;73.27;101287.94;4994644;28;99306;-27
2023/07/21 02:48:08;;;;;;;1.70;1.15;;;;;;;15.60;73.43;101278.00;4994555;28;99372;-27
2023/07/21 02:50:34;;;;;;;1.73;1.00;;;;;;;15.62;73.26;101284.22;4992816;28;97029;-27
2023/07/21 02:52:59;;;;;;;1.10;0.82;;;;;;;15.59;73.38;101273.53;4993245;28;96858;-27
2023/07/21 02:55:25;;;;;;;1.50;1.02;;;;;;;15.57;73.23;101274.63;4994590;28;99417;-27
2023/07/21 02:57:50;;;;;;;1.67;1.02;;;;;;;15.51;73.40;101276.81;4995006;28;97269;-27
2023/07/21 03:00:16;;;;;;;4.20;0.93;;;;;;;15.49;74.19;101272.47;4995072;28;96482;-27
2023/07/21 03:02:42;;;;;;;1.15;1.00;;;;;;;15.45;74.23;101285.50;4994775;28;96827;-27
2023/07/21 03:05:08;;;;;;;1.77;1.00;;;;;;;15.38;74.28;101267.84;4993203;28;100996;-27
2023/07/21 03:07:34;;;;;;;2.22;1.23;;;;;;;15.37;74.33;101270.66;4993234;28;101103;-27
2023/07/21 03:10:00;;;;;;;1.73;1.00;;;;;;;15.38;74.63;101277.88;4994664;28;96550;-28
2023/07/21 03:12:25;;;;;;;1.60;1.05;;;;;;;15.36;74.01;101274.41;4993431;28;96851;-27
2023/07/21 03:14:50;;;;;;;2.28;1.05;;;;;;;15.28;74.59;101272.25;4994145;28;97883;-27
2023/07/21 03:17:16;;;;;;;2.13;1.00;;;;;;;15.25;74.54;101269.72;4994445;28;97768;-27
2023/07/21 03:19:41;;;;;;;1.58;0.88;;;;;;;15.24;74.40;101276.19;4995056;28;96572;-27
2023/07/21 03:22:07;;;;;;;1.23;0.85;;;;;;;15.21;74.62;101266.38;4994832;28;96825;-27
2023/07/21 03:24:34;;;;;;;1.98;1.00;;;;;;;15.19;74.81;101268.34;4992826;28;101011;-27
2023/07/21 03:27:00;;;;;;;1.25;0.80;;;;;;;15.22;74.70;101268.09;4994140;28;99158;-27
2023/07/21 03:29:25;;;;;;;1.08;0.93;;;;;;;15.17;75.09;101266.72;4994840;28;96469;-27
2023/07/21 03:31:50;;;;;;;1.45;0.93;;;;;;;15.12;75.28;101258.84;4994986;28;96799;-28
2023/07/21 03:34:16;;;;;;;2.08;0.98;;;;;;;15.10;74.93;101260.81;4993983;28;99437;-27
2023/07/21 03:36:41;;;;;;;2.75;0.93;;;;;;;15.11;75.03;101259.84;4994052;28;97793;-27
2023/07/21 03:39:06;;;;;;;2.75;0.90;;;;;;;15.08;75.28;101254.59;4993876;28;96518;-27
2023/07/21 03:41:32;;;;;;;1.30;1.00;;;;;;;15.07;75.14;101256.47;4994573;28;96882;-27
2023/07/21 03:43:58;;;;;;;1.83;1.02;;;;;;;15.08;75.01;101254.59;4994321;28;97435;-27
2023/07/21 03:46:24;;;;;;;1.02;0.80;;;;;;;15.08;75.17;101250.00;4993206;28;100642;-27
2023/07/21 03:48:50;;;;;;;2.60;1.17;;;;;;;15.13;75.25;101263.31;4997417;28;96971;-27
2023/07/21 03:51:15;;;;;;;2.00;1.13;;;;;;;15.07;75.12;101244.69;4996163;28;96984;-27
2023/07/21 03:53:42;;;;;;;1.67;1.08;;;;;;;15.15;75.30;101255.91;4997215;28;98996;-27
2023/07/21 03:56:07;;;;;;;1.30;0.95;;;;;;;15.17;75.48;101255.78;4997901;28;97932;-29
2023/07/21 03:58:33;;;;;;;2.75;1.10;;;;;;;15.12;75.41;101245.22;4997917;28;96514;-27
2023/07/21 04:01:01;;;;;;;2.22;1.08;;;;;;;15.17;76.24;101258.53;4997894;28;96748;-27
2023/07/21 04:03:26;;;;;;;1.75;1.10;;;;;;;15.14;75.77;101247.84;4996824;28;97470;-27
2023/07/21 04:05:52;;;;;;;2.70;1.27;;;;;;;15.13;76.26;101251.53;4997212;28;97775;-28
2023/07/21 04:08:18;;;;;;;2.25;1.30;;;;;;;15.13;76.16;101252.41;4997372;28;96572;-27
2023/07/21 04:10:44;;;;;;;2.08;1.10;;;;;;;15.16;75.94;101252.19;4996230;28;96865;-27
2023/07/21 04:13:09;;;;;;;1.80;1.23;;;;;;;15.21;76.44;101265.50;4997182;28;97545;-27
2023/07/21 04:15:35;;;;;;;1.88;1.40;;;;;;;15.15;76.08;101253.16;4996928;28;99176;-28
2023/07/21 04:18:01;;;;;;;1.60;1.13;;;;;;;15.12;76.70;101247.94;4997222;28;96529;-27
2023/07/21 04:20:28;;;;;;;1.58;1.13;;;;;;;15.12;76.55;101239.75;4997760;28;96775;-27
2023/07/21 04:22:54;;;;;;;1.70;1.20;;;;;;;15.15;76.47;101244.13;4996748;28;99665;-27
2023/07/21 04:25:19;;;;;;;1.63;1.10;;;;;;;15.21;77.14;101241.81;4997245;28;97279;-27
2023/07/21 04:27:47;;;;;;;2.80;1.55;;;;;;;15.22;76.05;101235.34;4996389;28;96529;-28
2023/07/21 04:30:13;;;;;;;2.97;1.60;;;;;;;15.28;75.86;101239.50;4996948;28;96803;-27
2023/07/21 04:32:38;;;;;;;2.95;1.30;;;;;;;15.28;76.26;101243.09;4996640;28;99438;-29
2023/07/21 04:35:06;;;;;;;3.05;1.38;;;;;;;15.29;76.13;101241.22;4995190;28;100819;-27
2023/07/21 04:37:34;;;;;;;2.60;1.42;;;;;;;15.34;76.45;101254.53;4995854;28;96568;-27
2023/07/21 04:39:59;;;;;;;2.25;1.60;;;;;;;15.32;76.13;101240.13;4997456;28;96724;-27
2023/07/21 04:42:24;;;;;;;2.08;1.17;;;;;;;15.32;76.47;101248.31;4996909;28;98348;-28
2023/07/21 04:44:50;;;;;;;2.92;1.55;;;;;;;15.37;76.51;101246.97;4996793;28;99241;-27
2023/07/21 04:47:15;;;;;;;3.85;1.63;;;;;;;15.38;76.39;101256.03;4997125;28;96609;-27
2023/07/21 04:49:40;;;;;;;3.78;1.27;;;;;;;15.36;76.36;101241.63;4996615;28;96817;-27
2023/07/21 04:52:06;;;;;;;3.92;1.63;;;;;;;15.42;76.44;101250.25;4996249;28;97472;-27
2023/07/21 04:54:31;;;;;;;2.78;1.45;;;;;;;15.41;76.58;101239.44;4996622;28;97833;-27
2023/07/21 04:56:56;;;;;;;2.30;1.55;;;;;;;15.48;76.63;101246.16;4996740;28;96545;-28
2023/07/21 04:59:22;;;;;;;4.72;1.77;;;;;;;15.51;76.40;101245.91;4995895;28;96770;-27
2023/07/21 05:01:47;;;;;;;3.20;1.88;;;;;;;15.47;76.07;101228.91;4996597;28;97497;-27
2023/07/21 05:04:19;;;;;;;2.08;1.38;;;;;;;15.49;76.04;101234.25;4996378;28;97396;-27
2023/07/21 05:06:45;;;;;;;2.08;1.35;;;;;;;15.53;76.32;101237.63;4996492;28;96533;-27
2023/07/21 05:09:10;;;;;;;2.25;1.33;;;;;;;15.53;75.72;101234.91;4997034;28;96911;-27
2023/07/21 05:11:36;;;;;;;2.40;1.50;;;;;;;15.57;76.19;101244.59;4996092;28;99357;-28
2023/07/21 05:14:03;;;;;;;2.88;1.50;;;;;;;15.56;75.81;101232.78;4996399;28;97765;-27
2023/07/21 05:16:29;;;;;;;3.85;1.33;;;;;;;15.60;75.83;101231.56;4994671;28;96766;-27
2023/07/21 05:18:54;;;;;;;6.50;1.20;;;;;;;15.58;75.70;101225.34;4994872;28;97298;-27
2023/07/21 05:21:19;;;;;;;2.90;1.40;;;;;;;15.62;75.64;101226.88;4996199;28;97875;-27
2023/07/21 05:23:45;;;;;;;3.45;1.60;;;;;;;15.71;75.90;101239.84;4996082;28;97287;-28
2023/07/21 05:26:11;;;;;;;3.63;1.33;;;;;;;15.70;75.92;101224.44;4995256;28;96539;-27
2023/07/21 05:28:37;;;;;;;2.65;1.63;;;;;;;15.73;75.56;101225.19;4996296;28;96731;-27
2023/07/21 05:31:03;;;;;;;2.58;1.20;;;;;;;15.74;75.22;101221.50;4996041;28;98102;-27
2023/07/21 05:33:29;;;;;;;2.20;1.48;;;;;;;15.77;74.86;101224.84;4994669;28;100694;-27
2023/07/21 05:36:07;;;;;;;3.47;1.48;;;;;;;15.81;74.55;101229.09;4994594;28;96871;-27
2023/07/21 05:38:34;;;;;;;1.90;1.25;;;;;;;15.80;75.12;101221.91;4996019;28;96848;-27
2023/07/21 05:41:00;;;;;;;3.10;1.58;;;;;;;15.82;74.94;101222.63;4992629;28;101027;-28
2023/07/21 05:43:25;;;;;;;1.92;1.33;;;;;;;15.86;74.90;101226.84;4994070;28;97600;-32
2023/07/21 05:45:50;;;;;;;1.95;1.35;;;;;;;15.90;74.74;101228.38;4992565;28;96920;-32
2023/07/21 05:48:16;;;;;;;2.33;1.50;;;;;;;15.92;74.41;101228.22;4993534;28;96825;-27
2023/07/21 05:50:41;;;;;;;2.72;1.40;;;;;;;16.00;74.56;101231.25;4995505;28;97990;-27
2023/07/21 05:53:07;;;;;;;1.90;1.27;;;;;;;16.00;74.24;101224.94;4993283;28;100815;-28
2023/07/21 05:55:32;;;;;;;2.42;1.27;;;;;;;16.08;73.82;101225.19;4993587;28;96689;-31
2023/07/21 05:57:58;;;;;;;4.15;1.60;;;;;;;16.18;73.81;101222.59;4993998;28;96980;-28
2023/07/21 06:00:25;;;;;;;3.28;1.80;;;;;;;16.18;73.18;101222.59;4991453;28;101031;-34
2023/07/21 06:02:51;;;;;;;7.07;1.85;;;;;;;16.25;72.61;101221.97;4991277;28;100948;-30
2023/07/21 06:05:16;;;;;;;4.90;1.52;;;;;;;16.25;72.57;101216.50;4991870;28;96697;-35
2023/07/21 06:07:43;;;;;;;2.83;1.73;;;;;;;16.33;71.84;101219.50;4992195;28;97111;-31
2023/07/21 06:10:12;;;;;;;4.28;1.52;;;;;;;16.39;72.20;101222.75;4990828;28;99297;-31
2023/07/21 06:12:38;;;;;;;3.70;2.05;;;;;;;16.45;71.91;101228.59;4991114;28;100844;-27
2023/07/21 06:15:06;;;;;;;4.57;1.75;;;;;;;16.48;71.47;101222.88;4992815;28;98324;-30
2023/07/21 06:17:31;;;;;;;2.95;1.70;;;;;;;16.53;71.49;101225.25;4993445;28;97211;-27
2023/07/21 06:19:56;;;;;;;4.50;1.88;;;;;;;16.53;71.25;101217.91;4994207;28;98886;-27
2023/07/21 06:22:22;;;;;;;3.85;2.03;;;;;;;16.59;70.91;101224.75;4995690;28;97355;-27
2023/07/21 06:24:47;;;;;;;4.15;2.20;;;;;;;16.64;70.93;101225.25;4995582;28;96613;-27
2023/07/21 06:27:13;;;;;;;5.30;2.17;;;;;;;16.69;70.75;101225.75;4995220;28;96833;-27
2023/07/21 06:29:38;;;;;;;5.05;2.47;;;;;;;16.71;70.88;101231.97;4994244;28;99394;-27
2023/07/21 06:32:04;;;;;;;6.47;2.00;;;;;;;16.67;71.46;101219.53;4994803;28;99422;-27
2023/07/21 06:34:29;;;;;;;3.65;1.95;;;;;;;16.82;71.00;101228.38;4995075;28;97064;-27
2023/07/21 06:36:54;;;;;;;2.47;1.50;;;;;;;16.86;69.86;101229.00;4995324;28;96832;-27
2023/07/21 06:39:22;;;;;;;4.55;1.63;;;;;;;16.86;69.21;101224.38;4995421;28;97335;-27
2023/07/21 06:41:47;;;;;;;2.45;1.45;;;;;;;16.93;68.87;101222.03;4993546;28;101381;-27
2023/07/21 06:44:14;;;;;;;2.15;1.42;;;;;;;16.98;69.22;101236.19;4993465;28;96520;-28
2023/07/21 06:46:40;;;;;;;2.58;1.30;;;;;;;17.07;69.11;101231.84;4995688;28;96744;-26
2023/07/21 06:49:05;;;;;;;3.05;1.65;;;;;;;17.08;68.95;101220.75;4994317;28;97963;-27
2023/07/21 06:51:30;;;;;;;3.42;1.90;;;;;;;17.18;68.37;101234.53;4994327;28;99456;-28
2023/07/21 06:53:56;;;;;;;3.22;1.83;;;;;;;17.19;68.14;101225.34;4994704;28;96508;-28
2023/07/21 06:56:21;;;;;;;1.92;1.20;;;;;;;17.24;68.05;101223.06;4995080;28;96743;-27
2023/07/21 06:58:47;;;;;;;2.38;1.55;;;;;;;17.33;67.98;101227.78;4994331;28;99419;-27
2023/07/21 07:01:12;;;;;;;2.67;1.55;;;;;;;17.35;67.76;101224.91;4994538;28;97790;-27
2023/07/21 07:03:37;;;;;;;3.13;1.42;;;;;;;17.33;67.90;101216.84;4994897;28;96607;-27
2023/07/21 07:06:03;;;;;;;5.85;1.33;;;;;;;17.35;67.84;101220.31;4995063;28;96787;-27
2023/07/21 07:08:28;;;;;;;2.00;1.52;;;;;;;17.39;67.84;101213.56;4994419;28;99190;-27
2023/07/21 07:10:54;;;;;;;4.85;1.60;;;;;;;17.47;67.97;101220.25;4994672;28;99122;-27
2023/07/21 07:13:19;;;;;;;2.20;1.20;;;;;;;17.58;67.56;101221.09;4994538;28;96472;-27
2023/07/21 07:15:52;;;;;;;1.75;1.23;;;;;;;17.57;66.69;101202.06;4994396;28;96824;-27
2023/07/21 07:18:18;;;;;;;2.45;1.20;;;;;;;17.70;66.52;101212.81;4992513;28;101428;-27
2023/07/21 07:20:50;;;;;;;3.80;1.30;;;;;;;17.87;66.40;101204.03;4994250;28;98172;-27
2023/07/21 07:23:17;;;;;;;2.42;1.48;;;;;;;18.02;66.45;101221.06;4996589;28;96736;-27
2023/07/21 07:25:51;;;;;;;2.20;1.33;;;;;;;17.97;65.55;101212.31;4996751;28;96856;-27
2023/07/21 07:28:18;;;;;;;4.35;1.15;;;;;;;18.03;65.73;101214.53;4996266;28;101738;-27
2023/07/21 07:30:45;;;;;;;3.33;1.20;;;;;;;18.06;65.62;101214.28;4996355;28;101243;-27
2023/07/21 07:33:11;;;;;;;2.13;1.25;;;;;;;18.14;65.43;101219.97;4996746;28;96663;-27
2023/07/21 07:35:37;;;;;;;1.90;1.23;;;;;;;18.10;65.85;101203.91;4996860;28;96821;-27
2023/07/21 07:38:02;;;;;;;2.13;1.27;;;;;;;18.17;65.19;101216.09;4997818;28;97929;-27
2023/07/21 07:40:28;;;;;;;1.77;1.38;;;;;;;18.28;65.16;101228.84;4997391;28;99486;-28
2023/07/21 07:42:53;;;;;;;1.67;0.90;;;;;;;18.33;64.24;101221.06;4997466;28;96403;-27
2023/07/21 07:45:19;;;;;;;1.77;1.13;;;;;;;18.42;63.99;101225.75;4998076;28;96806;-28
2023/07/21 07:47:44;;;;;;;1.67;1.08;;;;;;;18.51;63.52;101226.81;4997637;28;97952;-27
2023/07/21 07:50:13;;;;;;;2.03;0.93;;;;;;;18.53;63.73;101216.56;4997098;28;99162;-27
2023/07/21 07:52:42;;;;;;;2.28;1.02;;;;;;;18.54;63.41;101221.03;4996541;28;96661;-27
2023/07/21 07:55:08;;;;;;;1.63;0.98;;;;;;;18.64;63.27;101221.97;4996245;28;96853;-27
2023/07/21 07:57:34;;;;;;;2.22;1.10;;;;;;;18.86;63.06;101213.56;4997536;28;98007;-27
2023/07/21 07:59:59;;;;;;;1.85;0.85;;;;;;;18.89;60.91;101215.16;4996463;28;101097;-27
2023/07/21 08:02:25;;;;;;;1.35;0.75;;;;;;;19.17;60.52;101215.38;4997717;28;96510;-27
2023/07/21 08:04:50;;;;;;;1.70;1.05;;;;;;;19.23;60.44;101209.31;4997662;28;96838;-27
2023/07/21 08:07:18;;;;;;;1.77;0.90;;;;;;;19.12;60.61;101207.56;4996905;28;98119;-27
2023/07/21 08:09:43;;;;;;;1.05;0.77;;;;;;;19.27;61.17;101219.00;4995588;28;100815;-27
2023/07/21 08:12:09;;;;;;;2.25;1.27;;;;;;;19.33;60.39;101210.22;4997418;28;96549;-27
2023/07/21 08:14:34;;;;;;;1.40;0.90;;;;;;;19.33;60.09;101210.22;4997995;28;96836;-27
2023/07/21 08:17:01;;;;;;;1.20;0.77;;;;;;;19.68;58.74;101209.66;4997080;28;104081;-26
2023/07/21 08:19:27;;;;;;;1.45;1.00;;;;;;;19.89;58.57;101208.66;4995591;28;101324;-27
2023/07/21 08:21:52;;;;;;;0.80;0.60;;;;;;;20.32;58.36;101210.88;4997601;28;96680;-27
2023/07/21 08:24:17;;;;;;;1.90;0.80;;;;;;;20.58;57.77;101200.09;4997640;28;96847;-27
2023/07/21 08:26:43;;;;;;;1.35;0.85;;;;;;;20.81;57.25;101209.84;4996749;28;99304;-27
2023/07/21 08:29:09;;;;;;;3.33;1.10;;;;;;;20.93;56.24;101219.66;4996749;28;99135;-27
2023/07/21 08:31:34;;;;;;;1.88;0.80;;;;;;;21.04;55.41;101211.16;4996618;28;96550;-27
2023/07/21 08:34:00;;;;;;;3.03;1.17;;;;;;;21.17;55.35;101211.69;4997140;28;96795;-27
2023/07/21 08:36:25;;;;;;;3.15;1.00;;;;;;;21.07;55.66;101213.66;4996988;28;97303;-28
2023/07/21 08:38:51;;;;;;;1.77;1.15;;;;;;;20.81;55.29;101207.97;4996895;28;97990;-27
2023/07/21 08:41:18;;;;;;;2.15;1.05;;;;;;;20.71;56.94;101218.16;4996879;28;96546;-27
2023/07/21 08:43:47;;;;;;;1.45;0.73;;;;;;;20.55;56.02;101208.66;4995734;28;96557;-28
2023/07/21 08:46:12;;;;;;;1.75;0.65;;;;;;;20.54;56.77;101200.50;4995273;28;100977;-28
2023/07/21 08:48:40;;;;;;;0.55;0.50;;;;;;;20.46;55.21;101204.03;4996538;28;98060;-27
2023/07/21 08:51:06;;;;;;;0.93;0.60;;;;;;;20.60;55.85;101215.63;4995397;28;96624;-27
2023/07/21 08:53:32;;;;;;;0.85;0.68;;;;;;;20.65;56.02;101214.13;4996729;28;96815;-27
2023/07/21 08:55:59;;;;;;;1.20;0.60;;;;;;;20.71;55.99;101210.78;4996027;28;97472;-26
2023/07/21 08:58:25;;;;;;;1.63;0.82;;;;;;;20.82;56.45;101208.84;4995001;28;100709;-27
2023/07/21 09:00:54;;;;;;;1.00;0.50;;;;;;;21.14;54.97;101205.59;4995224;28;96753;-27
2023/07/21 09:03:24;;;;;;;1.55;0.88;;;;;;;21.44;54.58;101201.66;4995449;28;96862;-27
2023/07/21 09:05:50;;;;;;;3.15;0.90;;;;;;;21.63;54.16;101197.88;4995052;28;100882;-27
2023/07/21 09:08:24;;;;;;;1.58;0.93;;;;;;;21.75;53.44;101198.50;4994638;28;100778;-28
2023/07/21 09:10:50;;;;;;;1.60;0.90;;;;;;;22.04;52.40;101196.31;4995248;28;96651;-27
2023/07/21 09:13:17;;;;;;;1.02;0.70;;;;;;;21.87;53.86;101186.19;4997073;28;96758;-27
2023/07/21 09:16:05;;;;;;;2.05;0.70;;;;;;;21.64;52.45;101188.56;4994844;28;100895;-27
2023/07/21 09:18:41;;;;;;;1.20;0.70;;;;;;;21.48;53.14;101186.56;4995814;28;97839;-28
2023/07/21 09:21:08;;;;;;;1.25;0.65;;;;;;;21.35;53.25;101194.31;4994572;28;96581;-27
2023/07/21 09:23:35;;;;;;;0.85;0.65;;;;;;;21.10;53.52;101185.78;4994967;28;96872;-27
2023/07/21 09:26:00;;;;;;;1.23;0.60;;;;;;;21.04;52.66;101202.91;4994773;28;101035;-27
2023/07/21 09:28:43;;;;;;;1.45;0.85;;;;;;;20.87;53.19;101193.59;4996007;28;98038;-28
2023/07/21 09:31:09;;;;;;;0.73;0.63;;;;;;;20.89;55.60;101209.97;4994984;28;96724;-27
2023/07/21 09:33:39;;;;;;;1.92;0.88;;;;;;;20.60;54.36;101210.97;4994802;28;96902;-28
2023/07/21 09:36:16;;;;;;;1.30;0.90;;;;;;;20.43;54.17;101212.59;4994453;28;101123;-27
2023/07/21 09:38:42;;;;;;;2.70;1.02;;;;;;;20.16;56.99;101216.13;4994869;28;103083;-28
2023/07/21 09:41:21;;;;;;;1.40;0.88;;;;;;;19.98;59.33;101229.78;4994698;28;96715;-27
2023/07/21 09:43:48;;;;;;;1.65;0.93;;;;;;;19.74;61.58;101224.72;4994420;28;96515;-27
2023/07/21 09:46:13;;;;;;;1.83;1.02;;;;;;;19.55;62.14;101242.03;4993468;28;101022;-27
2023/07/21 09:48:38;;;;;;;7.22;1.30;;;;;;;19.41;65.45;101225.97;4995071;28;97564;-27
2023/07/21 09:51:07;;;;;;;5.20;0.98;;;;;;;19.29;64.35;101212.34;4996129;28;96559;-27
2023/07/21 09:53:43;;;;;;;2.20;1.17;;;;;;;19.19;66.15;101210.63;4994439;28;96899;-28
2023/07/21 09:56:09;;;;;;;2.30;1.38;;;;;;;19.20;65.98;101213.19;4994004;28;99261;-27
2023/07/21 09:58:42;;;;;;;1.98;1.25;;;;;;;19.19;65.59;101203.25;4994166;28;100431;-27
2023/07/21 10:01:09;;;;;;;1.52;1.02;;;;;;;19.22;65.36;101211.19;4994349;28;96636;-27
2023/07/21 10:03:36;;;;;;;1.85;1.00;;;;;;;19.23;65.33;101210.16;4996361;28;96752;-27
2023/07/21 10:06:03;;;;;;;2.33;1.40;;;;;;;19.37;66.23;101213.53;4993905;28;101061;-27
2023/07/21 10:08:30;;;;;;;1.67;0.95;;;;;;;19.44;66.79;101196.31;4993702;28;100974;-27
2023/07/21 10:10:57;;;;;;;1.83;0.93;;;;;;;19.44;65.77;101196.31;4993720;28;96675;-27
2023/07/21 10:13:27;;;;;;;2.22;1.08;;;;;;;19.35;65.49;101186.19;4994249;28;96806;-28
2023/07/21 10:16:06;;;;;;;1.70;1.13;;;;;;;19.40;65.48;101202.25;4993766;28;101456;-27
2023/07/21 10:18:32;;;;;;;1.67;0.90;;;;;;;19.35;65.42;101196.31;4993808;28;98868;-27
2023/07/21 10:20:58;;;;;;;1.27;0.90;;;;;;;19.37;66.40;101208.88;4993814;28;96742;-27
2023/07/21 10:23:37;;;;;;;0.88;0.70;;;;;;;19.28;66.05;101210.63;4995720;28;96742;-28
2023/07/21 10:26:04;;;;;;;2.00;1.05;;;;;;;19.10;66.12;101210.44;4993867;28;100960;-28
2023/07/21 10:28:30;;;;;;;1.63;1.00;;;;;;;19.08;67.36;101204.22;4993993;28;100868;-27
2023/07/21 10:31:21;;;;;;;1.58;0.90;;;;;;;19.08;68.24;101219.84;4994032;28;97168;-27
2023/07/21 10:34:12;;;;;;;2.00;0.95;;;;;;;19.02;67.32;101218.53;4995219;28;96824;-27
2023/07/21 10:36:52;;;;;;;2.05;0.88;;;;;;;18.98;68.84;101211.56;4992714;28;100858;-27
2023/07/21 10:39:22;;;;;;;1.77;0.95;;;;;;;18.91;68.73;101201.31;4994867;28;99307;-27
2023/07/21 10:41:52;;;;;;;1.95;1.17;;;;;;;18.84;68.86;101215.56;4993516;28;96599;-26
2023/07/21 10:44:19;;;;;;;1.67;1.00;;;;;;;18.86;68.26;101204.47;4995191;28;96464;-27
2023/07/21 10:46:47;;;;;;;1.38;0.90;;;;;;;18.93;68.51;101213.00;4993536;28;101562;-27
2023/07/21 10:49:14;;;;;;;2.35;1.05;;;;;;;18.85;68.24;101195.38;4992721;28;100649;-27
2023/07/21 10:51:41;;;;;;;4.63;1.20;;;;;;;18.82;68.42;101212.09;4993422;28;96882;-27
2023/07/21 10:54:08;;;;;;;1.55;0.98;;;;;;;18.89;68.55;101212.41;4994014;28;96945;-27
2023/07/21 10:56:35;;;;;;;1.00;0.77;;;;;;;18.81;68.55;101228.72;4992239;28;100876;-27
2023/07/21 10:59:01;;;;;;;2.30;1.00;;;;;;;18.75;68.73;101227.34;4993186;28;101141;-27
2023/07/21 11:01:27;;;;;;;1.15;0.80;;;;;;;18.77;68.65;101239.09;4994405;28;96505;-27
2023/07/21 11:03:52;;;;;;;2.78;1.20;;;;;;;18.75;68.40;101242.94;4995100;28;96809;-27
2023/07/21 11:06:18;;;;;;;4.90;1.42;;;;;;;18.74;69.61;101241.22;4994736;28;98058;-27
2023/07/21 11:08:44;;;;;;;2.47;1.42;;;;;;;18.65;69.73;101230.03;4994597;28;97792;-27
2023/07/21 11:11:09;;;;;;;5.05;1.35;;;;;;;18.53;71.06;101235.78;4993362;28;96558;-27
2023/07/21 11:13:37;;;;;;;3.40;1.58;;;;;;;18.28;74.50;101231.59;4995200;28;96753;-26
2023/07/21 11:16:03;;;;;;;2.45;1.35;;;;;;;18.28;72.71;101240.66;4994734;28;97570;-27
2023/07/21 11:18:28;;;;;;;2.40;1.50;;;;;;;18.23;72.99;101253.91;4994822;28;97885;-27
2023/07/21 11:20:55;;;;;;;2.45;1.40;;;;;;;18.17;73.39;101251.72;4994868;28;96415;-27
2023/07/21 11:23:21;;;;;;;3.75;1.40;;;;;;;18.09;74.07;101252.41;4993120;28;96760;-28